Time;durP1;ratioP1;P1;durP2;ratioP2;P2;SDS_P1;SDS_P2;PMS_P1;PMS_P2;Temp;Humidity;BMP_temperature;BMP_pressure;BME280_temperature;BME280_humidity;BME280_pressure;Samples;Min_cycle;Max_cycle;Signal;HPM_P1;HPM_P2
2023/04/18 00:01:25;;;;;;;;;;;;;;;;;;5095348;28;20399;-66
2023/04/18 00:03:52;;;;;;;;;;;;;;;;;;5095401;28;19908;-65
2023/04/18 00:06:19;;;;;;;;;;;;;;;;;;5094891;28;19908;-66
2023/04/18 00:08:45;;;;;;;;;;;;;;;;;;5095277;28;20058;-66
2023/04/18 00:11:11;;;;;;;;;;;;;;;;;;5095440;28;19995;-66
2023/04/18 00:13:38;;;;;;;;;;;;;;;;;;5094872;28;19916;-67
2023/04/18 00:16:04;;;;;;;;;;;;;;;;;;5076900;28;19912;-66
2023/04/18 00:18:30;;;;;;;;;;;;;;;;;;5094711;28;19912;-66
2023/04/18 00:20:56;;;;;;;;;;;;;;;;;;5094232;28;20045;-66
2023/04/18 00:23:22;;;;;;;;;;;;;;;;;;5094920;28;19955;-66
2023/04/18 00:25:48;;;;;;;;;;;;;;;;;;5076277;28;19915;-65
2023/04/18 00:28:14;;;;;;;;;;;;;;;;;;5094909;28;20276;-67
2023/04/18 00:30:40;;;;;;;;;;;;;;;;;;5094828;28;20287;-66
2023/04/18 00:33:06;;;;;;;;;;;;;;;;;;5094406;28;19908;-65
2023/04/18 00:35:32;;;;;;;;;;;;;;;;;;5094552;28;19957;-67
2023/04/18 00:37:58;;;;;;;;;;;;;;;;;;5094811;28;19923;-66
2023/04/18 00:40:23;;;;;;;;;;;;;;;;;;5094239;28;20019;-65
2023/04/18 00:42:49;;;;;;;;;;;;;;;;;;5094627;28;19909;-66
2023/04/18 00:45:15;;;;;;;;;;;;;;;;;;5094518;28;19908;-66
2023/04/18 00:47:41;;;;;;;;;;;;;;;;;;5094107;28;19930;-66
2023/04/18 00:50:07;;;;;;;;;;;;;;;;;;5094528;28;19912;-66
2023/04/18 00:52:34;;;;;;;;;;;;;;;;;;5094497;28;19995;-66
2023/04/18 00:55:00;;;;;;;;;;;;;;;;;;5094141;28;19968;-66
2023/04/18 00:57:26;;;;;;;;;;;;;;;;;;5094240;28;20327;-66
2023/04/18 00:59:52;;;;;;;;;;;;;;;;;;5094429;28;20010;-67
2023/04/18 01:02:18;;;;;;;;;;;;;;;;;;5093913;28;19908;-67
2023/04/18 01:04:45;;;;;;;;;;;;;;;;;;5094314;28;19908;-64
2023/04/18 01:07:11;;;;;;;;;;;;;;;;;;5094107;28;20249;-66
2023/04/18 01:09:36;;;;;;;;;;;;;;;;;;5093830;28;19915;-66
2023/04/18 01:12:03;;;;;;;;;;;;;;;;;;5075976;28;20338;-66
2023/04/18 01:14:29;;;;;;;;;;;;;;;;;;5076064;28;19962;-66
2023/04/18 01:16:56;;;;;;;;;;;;;;;;;;5093613;28;19916;-66
2023/04/18 01:19:22;;;;;;;;;;;;;;;;;;5094085;28;19912;-65
2023/04/18 01:21:48;;;;;;;;;;;;;;;;;;5093538;28;20327;-66
2023/04/18 01:24:14;;;;;;;;;;;;;;;;;;5093932;28;19909;-66
2023/04/18 01:26:40;;;;;;;;;;;;;;;;;;5075725;28;19909;-66
2023/04/18 01:29:06;;;;;;;;;;;;;;;;;;5093580;28;19915;-66
2023/04/18 01:31:32;;;;;;;;;;;;;;;;;;5094224;28;19912;-65
2023/04/18 01:33:58;;;;;;;;;;;;;;;;;;5093903;28;20376;-65
2023/04/18 01:36:24;;;;;;;;;;;;;;;;;;5093074;28;20288;-65
2023/04/18 01:38:49;;;;;;;;;;;;;;;;;;5094006;28;20284;-66
2023/04/18 01:41:15;;;;;;;;;;;;;;;;;;5093689;28;20393;-66
2023/04/18 01:43:41;;;;;;;;;;;;;;;;;;5093466;28;19912;-67
2023/04/18 01:46:07;;;;;;;;;;;;;;;;;;5094043;28;19908;-66
2023/04/18 01:48:33;;;;;;;;;;;;;;;;;;5093739;28;19908;-67
2023/04/18 01:50:59;;;;;;;;;;;;;;;;;;5093374;28;20387;-66
2023/04/18 01:53:25;;;;;;;;;;;;;;;;;;5093665;28;20275;-66
2023/04/18 01:55:51;;;;;;;;;;;;;;;;;;5094037;28;20074;-66
2023/04/18 01:58:21;;;;;;;;;;;;;;;;;;5093206;28;20399;-67
2023/04/18 02:00:47;;;;;;;;;;;;;;;;;;5093878;28;19908;-67
2023/04/18 02:03:13;;;;;;;;;;;;;;;;;;5093565;28;19930;-67
2023/04/18 02:05:39;;;;;;;;;;;;;;;;;;5093133;28;19908;-65
2023/04/18 02:08:05;;;;;;;;;;;;;;;;;;5075614;28;19908;-65
2023/04/18 02:10:31;;;;;;;;;;;;;;;;;;5093419;28;19909;-65
2023/04/18 02:12:57;;;;;;;;;;;;;;;;;;5093130;28;19914;-65
2023/04/18 02:15:23;;;;;;;;;;;;;;;;;;5093383;28;19908;-65
2023/04/18 02:17:49;;;;;;;;;;;;;;;;;;5093414;28;19955;-65
2023/04/18 02:20:15;;;;;;;;;;;;;;;;;;5093047;28;19916;-66
2023/04/18 02:22:41;;;;;;;;;;;;;;;;;;5093395;28;19908;-66
2023/04/18 02:25:07;;;;;;;;;;;;;;;;;;5093452;28;19908;-66
2023/04/18 02:27:33;;;;;;;;;;;;;;;;;;5093304;28;19986;-67
2023/04/18 02:29:59;;;;;;;;;;;;;;;;;;5093287;28;19908;-67
2023/04/18 02:32:25;;;;;;;;;;;;;;;;;;5093075;28;19952;-67
2023/04/18 02:34:51;;;;;;;;;;;;;;;;;;5093258;28;19908;-67
2023/04/18 02:37:17;;;;;;;;;;;;;;;;;;5093006;28;19963;-66
2023/04/18 02:39:42;;;;;;;;;;;;;;;;;;5092812;28;19961;-66
2023/04/18 02:42:08;;;;;;;;;;;;;;;;;;5093184;28;19908;-66
2023/04/18 02:44:34;;;;;;;;;;;;;;;;;;5095678;28;19908;-66
2023/04/18 02:47:00;;;;;;;;;;;;;;;;;;5096711;28;19908;-67
2023/04/18 02:49:26;;;;;;;;;;;;;;;;;;5096761;28;19916;-66
2023/04/18 02:51:52;;;;;;;;;;;;;;;;;;5097189;28;19913;-66
2023/04/18 02:54:18;;;;;;;;;;;;;;;;;;5078129;28;19994;-66
2023/04/18 02:56:44;;;;;;;;;;;;;;;;;;5078433;28;19916;-66
2023/04/18 02:59:10;;;;;;;;;;;;;;;;;;5096660;28;20368;-66
2023/04/18 03:01:36;;;;;;;;;;;;;;;;;;5077921;28;19915;-66
2023/04/18 03:04:02;;;;;;;;;;;;;;;;;;5096495;28;19908;-66
2023/04/18 03:06:28;;;;;;;;;;;;;;;;;;5096339;28;19911;-66
2023/04/18 03:08:54;;;;;;;;;;;;;;;;;;5095960;28;19915;-66
2023/04/18 03:11:21;;;;;;;;;;;;;;;;;;5096323;28;19916;-66
2023/04/18 03:13:47;;;;;;;;;;;;;;;;;;5096354;28;20268;-66
2023/04/18 03:16:13;;;;;;;;;;;;;;;;;;5095850;28;19916;-66
2023/04/18 03:18:39;;;;;;;;;;;;;;;;;;5096244;28;20375;-66
2023/04/18 03:21:06;;;;;;;;;;;;;;;;;;5096212;28;20360;-66
2023/04/18 03:23:31;;;;;;;;;;;;;;;;;;5077614;28;19919;-66
2023/04/18 03:25:57;;;;;;;;;;;;;;;;;;5096054;28;20273;-65
2023/04/18 03:28:23;;;;;;;;;;;;;;;;;;5077639;28;20379;-66
2023/04/18 03:30:49;;;;;;;;;;;;;;;;;;5096078;28;19908;-66
2023/04/18 03:33:16;;;;;;;;;;;;;;;;;;5095981;28;19908;-66
2023/04/18 03:35:41;;;;;;;;;;;;;;;;;;5077357;28;19943;-66
2023/04/18 03:38:07;;;;;;;;;;;;;;;;;;5096053;28;20337;-67
2023/04/18 03:40:33;;;;;;;;;;;;;;;;;;5096083;28;19909;-69
2023/04/18 03:42:59;;;;;;;;;;;;;;;;;;5095637;28;19953;-66
2023/04/18 03:45:25;;;;;;;;;;;;;;;;;;5078066;28;19909;-67
2023/04/18 03:47:51;;;;;;;;;;;;;;;;;;5095914;28;19908;-67
2023/04/18 03:50:17;;;;;;;;;;;;;;;;;;5095526;28;19908;-66
2023/04/18 03:52:43;;;;;;;;;;;;;;;;;;5095682;28;19916;-67
2023/04/18 03:55:10;;;;;;;;;;;;;;;;;;5095702;28;20291;-67
2023/04/18 03:57:36;;;;;;;;;;;;;;;;;;5095144;28;19923;-66
2023/04/18 04:00:03;;;;;;;;;;;;;;;;;;5095567;28;19912;-65
2023/04/18 04:02:29;;;;;;;;;;;;;;;;;;5095546;28;19915;-67
2023/04/18 04:04:55;;;;;;;;;;;;;;;;;;5095056;28;19908;-66
2023/04/18 04:07:21;;;;;;;;;;;;;;;;;;5077176;28;19915;-66
2023/04/18 04:09:48;;;;;;;;;;;;;;;;;;5095357;28;19912;-66
2023/04/18 04:12:14;;;;;;;;;;;;;;;;;;5094961;28;20402;-66
2023/04/18 04:14:40;;;;;;;;;;;;;;;;;;5095271;28;19908;-66
2023/04/18 04:17:06;;;;;;;;;;;;;;;;;;5095467;28;19962;-66
2023/04/18 04:19:32;;;;;;;;;;;;;;;;;;5094991;28;19912;-66
2023/04/18 04:21:58;;;;;;;;;;;;;;;;;;5095663;28;19909;-66
2023/04/18 04:24:23;;;;;;;;;;;;;;;;;;5095268;28;19931;-67
2023/04/18 04:26:49;;;;;;;;;;;;;;;;;;5094540;28;19908;-66
2023/04/18 04:29:15;;;;;;;;;;;;;;;;;;5076802;28;20006;-66
2023/04/18 04:31:41;;;;;;;;;;;;;;;;;;5076047;28;19916;-66
2023/04/18 04:34:07;;;;;;;;;;;;;;;;;;5095040;28;19908;-66
2023/04/18 04:36:33;;;;;;;;;;;;;;;;;;5093325;28;19949;-66
2023/04/18 04:39:02;;;;;;;;;;;;;;;;;;5092583;28;20010;-66
2023/04/18 04:41:28;;;;;;;;;;;;;;;;;;5094702;28;19912;-66
2023/04/18 04:43:54;;;;;;;;;;;;;;;;;;5094573;28;20291;-66
2023/04/18 04:46:21;;;;;;;;;;;;;;;;;;5093163;28;20393;-66
2023/04/18 04:48:48;;;;;;;;;;;;;;;;;;5094186;28;19912;-66
2023/04/18 04:51:14;;;;;;;;;;;;;;;;;;5094450;28;19908;-66
2023/04/18 04:53:40;;;;;;;;;;;;;;;;;;5093391;28;20003;-65
2023/04/18 04:56:06;;;;;;;;;;;;;;;;;;5092108;28;19937;-65
2023/04/18 04:58:32;;;;;;;;;;;;;;;;;;5074051;28;19919;-66
2023/04/18 05:00:58;;;;;;;;;;;;;;;;;;5091761;28;20380;-66
2023/04/18 05:03:24;;;;;;;;;;;;;;;;;;5092486;28;20419;-66
2023/04/18 05:05:50;;;;;;;;;;;;;;;;;;5093113;28;20348;-65
2023/04/18 05:08:16;;;;;;;;;;;;;;;;;;5090127;28;19912;-66
2023/04/18 05:10:42;;;;;;;;;;;;;;;;;;5094082;28;19961;-68
2023/04/18 05:13:08;;;;;;;;;;;;;;;;;;5093917;28;19915;-68
2023/04/18 05:15:34;;;;;;;;;;;;;;;;;;5093012;28;19939;-67
2023/04/18 05:18:00;;;;;;;;;;;;;;;;;;5074419;28;20015;-67
2023/04/18 05:20:26;;;;;;;;;;;;;;;;;;5092687;28;20002;-66
2023/04/18 05:22:52;;;;;;;;;;;;;;;;;;5090937;28;19919;-66
2023/04/18 05:25:18;;;;;;;;;;;;;;;;;;5074918;28;19908;-65
2023/04/18 05:27:44;;;;;;;;;;;;;;;;;;5085538;28;19908;-64
2023/04/18 05:30:10;;;;;;;;;;;;;;;;;;5079325;28;20003;-65
2023/04/18 05:32:37;;;;;;;;;;;;;;;;;;5071335;28;19908;-65
2023/04/18 05:35:03;;;;;;;;;;;;;;;;;;5084792;28;19957;-66
2023/04/18 05:37:29;;;;;;;;;;;;;;;;;;5091131;28;19974;-65
2023/04/18 05:39:55;;;;;;;;;;;;;;;;;;5089599;28;19945;-65
2023/04/18 05:42:21;;;;;;;;;;;;;;;;;;5089193;28;19908;-66
2023/04/18 05:44:47;;;;;;;;;;;;;;;;;;5091697;28;19995;-65
2023/04/18 05:47:13;;;;;;;;;;;;;;;;;;5090941;28;19912;-65
2023/04/18 05:49:39;;;;;;;;;;;;;;;;;;5089394;28;19908;-65
2023/04/18 05:52:05;;;;;;;;;;;;;;;;;;5071369;28;20398;-64
2023/04/18 05:54:31;;;;;;;;;;;;;;;;;;5089383;28;19912;-63
2023/04/18 05:56:57;;;;;;;;;;;;;;;;;;5089320;28;19916;-64
2023/04/18 05:59:23;;;;;;;;;;;;;;;;;;5090480;28;19908;-64
2023/04/18 06:01:49;;;;;;;;;;;;;;;;;;5091584;28;20287;-64
2023/04/18 06:04:15;;;;;;;;;;;;;;;;;;5089690;28;19908;-64
2023/04/18 06:06:41;;;;;;;;;;;;;;;;;;5090683;28;19908;-63
2023/04/18 06:09:07;;;;;;;;;;;;;;;;;;5092117;28;19919;-63
2023/04/18 06:11:34;;;;;;;;;;;;;;;;;;5073880;28;20287;-64
2023/04/18 06:14:00;;;;;;;;;;;;;;;;;;5080712;28;20293;-66
2023/04/18 06:16:26;;;;;;;;;;;;;;;;;;5073337;28;19912;-65
2023/04/18 06:18:52;;;;;;;;;;;;;;;;;;5092540;28;20311;-65
2023/04/18 06:21:18;;;;;;;;;;;;;;;;;;5095758;28;20020;-64
2023/04/18 06:23:44;;;;;;;;;;;;;;;;;;5095778;28;20362;-64
2023/04/18 06:26:10;;;;;;;;;;;;;;;;;;5076541;28;20315;-64
2023/04/18 06:28:36;;;;;;;;;;;;;;;;;;5093573;28;19916;-66
2023/04/18 06:31:02;;;;;;;;;;;;;;;;;;5095507;28;19912;-66
2023/04/18 06:33:28;;;;;;;;;;;;;;;;;;5095208;28;19908;-64
2023/04/18 06:35:54;;;;;;;;;;;;;;;;;;5095031;28;20429;-65
2023/04/18 06:38:20;;;;;;;;;;;;;;;;;;5095957;28;20435;-65
2023/04/18 06:40:45;;;;;;;;;;;;;;;;;;5095759;28;19919;-65
2023/04/18 06:43:11;;;;;;;;;;;;;;;;;;5095631;28;19912;-64
2023/04/18 06:45:37;;;;;;;;;;;;;;;;;;5077583;28;19908;-65
2023/04/18 06:48:03;;;;;;;;;;;;;;;;;;5057760;28;20037;-66
2023/04/18 06:50:29;;;;;;;;;;;;;;;;;;5075386;28;20273;-63
2023/04/18 06:52:55;;;;;;;;;;;;;;;;;;5073492;28;19912;-65
2023/04/18 06:55:21;;;;;;;;;;;;;;;;;;5092526;28;20412;-65
2023/04/18 06:57:47;;;;;;;;;;;;;;;;;;5091572;28;19962;-65
2023/04/18 07:00:13;;;;;;;;;;;;;;;;;;5090686;28;20261;-65
2023/04/18 07:02:40;;;;;;;;;;;;;;;;;;5089903;28;19912;-65
2023/04/18 07:05:05;;;;;;;;;;;;;;;;;;5090991;28;19916;-65
2023/04/18 07:07:31;;;;;;;;;;;;;;;;;;5091999;28;19916;-67
2023/04/18 07:09:57;;;;;;;;;;;;;;;;;;5092516;28;20301;-63
2023/04/18 07:12:23;;;;;;;;;;;;;;;;;;5093227;28;20050;-65
2023/04/18 07:14:49;;;;;;;;;;;;;;;;;;5072958;28;19916;-64
2023/04/18 07:17:16;;;;;;;;;;;;;;;;;;5093803;28;19942;-64
2023/04/18 07:19:42;;;;;;;;;;;;;;;;;;5091001;28;19965;-65
2023/04/18 07:22:08;;;;;;;;;;;;;;;;;;5091481;28;19953;-64
2023/04/18 07:24:34;;;;;;;;;;;;;;;;;;5081105;28;19912;-65
2023/04/18 07:27:00;;;;;;;;;;;;;;;;;;5091740;28;19912;-67
2023/04/18 07:29:26;;;;;;;;;;;;;;;;;;5072650;28;19991;-64
2023/04/18 07:31:52;;;;;;;;;;;;;;;;;;5091044;28;20011;-63
2023/04/18 07:34:18;;;;;;;;;;;;;;;;;;5091290;28;20304;-63
2023/04/18 07:36:44;;;;;;;;;;;;;;;;;;5091814;28;20372;-65
2023/04/18 07:39:10;;;;;;;;;;;;;;;;;;5093432;28;19912;-67
2023/04/18 07:41:36;;;;;;;;;;;;;;;;;;5094571;28;20049;-67
2023/04/18 07:44:02;;;;;;;;;;;;;;;;;;5094643;28;19916;-66
2023/04/18 07:46:28;;;;;;;;;;;;;;;;;;5094562;28;19908;-66
2023/04/18 07:48:54;;;;;;;;;;;;;;;;;;5075166;28;19959;-64
2023/04/18 07:51:20;;;;;;;;;;;;;;;;;;5073111;28;19909;-65
2023/04/18 07:53:46;;;;;;;;;;;;;;;;;;5085630;28;19912;-66
2023/04/18 07:56:13;;;;;;;;;;;;;;;;;;5074130;28;19935;-65
2023/04/18 07:58:39;;;;;;;;;;;;;;;;;;5068746;28;19916;-65
2023/04/18 08:01:06;;;;;;;;;;;;;;;;;;5090901;28;19934;-66
2023/04/18 08:03:35;;;;;;;;;;;;;;;;;;5087663;28;19916;-65
2023/04/18 08:06:02;;;;;;;;;;;;;;;;;;5088398;28;20402;-66
2023/04/18 08:08:28;;;;;;;;;;;;;;;;;;5070880;28;19916;-65
2023/04/18 08:10:54;;;;;;;;;;;;;;;;;;5071622;28;19912;-66
2023/04/18 08:13:19;;;;;;;;;;;;;;;;;;5091274;28;19908;-65
2023/04/18 08:15:45;;;;;;;;;;;;;;;;;;5071150;28;20339;-63
2023/04/18 08:18:11;;;;;;;;;;;;;;;;;;5089201;28;19973;-65
2023/04/18 08:22:04;;;;;;;;;;;;;;;;;;5099774;27;19916;-65
2023/04/18 08:24:30;;;;;;;;;;;;;;;;;;5086558;28;19912;-64
2023/04/18 08:26:56;;;;;;;;;;;;;;;;;;5087244;28;19912;-65
2023/04/18 08:32:10;;;;;;;;;;;;;;;;;;5149595;27;20310;-65
2023/04/18 08:34:36;;;;;;;;;;;;;;;;;;5150749;27;19911;-64
2023/04/18 08:37:03;;;;;;;;;;;;;;;;;;5151296;27;20283;-65
2023/04/18 08:39:29;;;;;;;;;;;;;;;;;;5132864;27;19907;-64
2023/04/18 08:41:55;;;;;;;;;;;;;;;;;;5131908;27;19907;-65
2023/04/18 08:50:48;;;;;;;;;;;;;;;;;;5107122;27;19916;-64
2023/04/18 08:53:16;;;;;;;;;;;;;;;;;;5104274;28;20441;-64
2023/04/18 08:55:43;;;;;;;;;;;;;;;;;;5106077;28;19935;-64
2023/04/18 08:59:21;;;;;;;;;;;;;;;;;;5084930;27;19927;-64
2023/04/18 09:01:47;;;;;;;;;;;;;;;;;;5084110;28;19943;-64
2023/04/18 09:04:13;;;;;;;;;;;;;;;;;;5086048;28;20306;-64
2023/04/18 09:08:51;;;;;;;;;;;;;;;;;;5146186;27;19938;-63
2023/04/18 09:11:19;;;;;;;;;;;;;;;;;;5146916;27;19915;-64
2023/04/18 09:13:46;;;;;;;;;;;;;;;;;;5147264;27;19926;-66
2023/04/18 09:16:13;;;;;;;;;;;;;;;;;;5148006;27;20332;-65
2023/04/18 09:18:41;;;;;;;;;;;;;;;;;;5146375;27;20634;-65
2023/04/18 09:21:07;;;;;;;;;;;;;;;;;;5147025;27;19908;-65
2023/04/18 09:23:33;;;;;;;;;;;;;;;;;;5128109;27;20454;-65
2023/04/18 09:25:59;;;;;;;;;;;;;;;;;;5147347;27;19954;-65
2023/04/18 09:28:28;;;;;;;;;;;;;;;;;;5128616;27;19920;-65
2023/04/18 09:30:54;;;;;;;;;;;;;;;;;;5129306;27;20331;-66
2023/04/18 09:33:21;;;;;;;;;;;;;;;;;;5126815;27;20367;-66
2023/04/18 09:36:04;;;;;;;;;;;;;;;;;;5146382;27;19922;-65
2023/04/18 09:38:30;;;;;;;;;;;;;;;;;;5127825;27;19922;-65
2023/04/18 09:44:30;;;;;;;;;;;;;;;;;;5124923;27;19926;-63
2023/04/18 09:46:56;;;;;;;;;;;;;;;;;;5128281;28;19948;-67
2023/04/18 09:49:22;;;;;;;;;;;;;;;;;;5130265;28;19907;-64
2023/04/18 09:51:48;;;;;;;;;;;;;;;;;;5129526;28;19912;-65
2023/04/18 09:55:07;;;;;;;;;;;;;;;;;;5089833;27;20382;-65
2023/04/18 10:01:18;;;;;;;;;;;;;;;;;;5067921;28;19920;-66
2023/04/18 10:03:44;;;;;;;;;;;;;;;;;;5067020;28;20343;-65
2023/04/18 10:06:10;;;;;;;;;;;;;;;;;;5067218;28;19916;-65
2023/04/18 10:08:36;;;;;;;;;;;;;;;;;;5068256;28;19909;-65
2023/04/18 10:11:02;;;;;;;;;;;;;;;;;;5065704;28;19913;-64
2023/04/18 10:13:28;;;;;;;;;;;;;;;;;;5061605;28;19913;-64
2023/04/18 10:15:54;;;;;;;;;;;;;;;;;;5066965;28;19920;-63
2023/04/18 10:18:20;;;;;;;;;;;;;;;;;;5062390;28;19909;-66
2023/04/18 10:20:46;;;;;;;;;;;;;;;;;;5068442;28;20032;-64
2023/04/18 10:23:12;;;;;;;;;;;;;;;;;;5065831;28;20417;-66
2023/04/18 10:26:20;;;;;;;;;;;;;;;;;;5107765;27;19916;-64
2023/04/18 10:30:06;;;;;;;;;;;;;;;;;;4472006;27;18583135;-65
2023/04/18 10:34:37;;;;;;;;;;;;;;;;;;4620013;27;14350886;-66
2023/04/18 10:37:03;;;;;;;;;;;;;;;;;;5126896;28;20006;-67
2023/04/18 10:39:29;;;;;;;;;;;;;;;;;;5128676;28;19941;-66
2023/04/18 10:43:56;;;;;;;;;;;;;;;;;;5089817;27;19916;-66
2023/04/18 10:46:22;;;;;;;;;;;;;;;;;;5088479;28;20372;-65
2023/04/18 10:48:48;;;;;;;;;;;;;;;;;;5088617;28;19958;-65
2023/04/18 10:51:15;;;;;;;;;;;;;;;;;;5090381;28;19909;-65
2023/04/18 10:53:40;;;;;;;;;;;;;;;;;;5088844;28;20003;-65
2023/04/18 10:56:06;;;;;;;;;;;;;;;;;;5090541;28;20291;-66
2023/04/18 10:58:32;;;;;;;;;;;;;;;;;;5088457;28;20344;-65
2023/04/18 11:01:04;;;;;;;;;;;;;;;;;;5088046;28;20272;-65
2023/04/18 11:04:37;;;;;;;;;;;;;;;;;;4345675;27;21910664;-65
2023/04/18 11:07:07;;;;;;;;;;;;;;;;;;5107159;28;19912;-65
2023/04/18 11:10:47;;;;;;;;;;;;;;;;;;4537416;27;16707407;-66
2023/04/18 11:15:41;;;;;;;;;;;;;;;;;;4268181;27;24836074;-65
2023/04/18 11:20:25;;;;;;;;;;;;;;;;;;5120111;27;19916;-63
2023/04/18 11:22:56;;;;;;;;;;;;;;;;;;5086171;28;19952;-66
2023/04/18 11:25:22;;;;;;;;;;;;;;;;;;5085489;28;19912;-67
2023/04/18 11:30:13;;;;;;;;;;;;;;;;;;4514376;27;17338501;-63
2023/04/18 11:32:39;;;;;;;;;;;;;;;;;;5128773;28;20018;-63
2023/04/18 11:35:05;;;;;;;;;;;;;;;;;;5109859;28;20003;-64
2023/04/18 11:38:11;;;;;;;;;;;;;;;;;;5089599;27;19916;-63
2023/04/18 11:40:37;;;;;;;;;;;;;;;;;;5087652;28;20265;-63
2023/04/18 11:43:02;;;;;;;;;;;;;;;;;;5089172;28;19981;-61
2023/04/18 11:45:28;;;;;;;;;;;;;;;;;;5089925;28;20007;-62
2023/04/18 11:47:55;;;;;;;;;;;;;;;;;;5088314;28;19912;-63
2023/04/18 11:51:01;;;;;;;;;;;;;;;;;;5087726;27;19926;-63
2023/04/18 11:53:27;;;;;;;;;;;;;;;;;;5087368;28;19916;-62
2023/04/18 11:55:52;;;;;;;;;;;;;;;;;;5084907;28;19962;-62
2023/04/18 11:58:19;;;;;;;;;;;;;;;;;;5087119;28;19915;-63
2023/04/18 12:00:48;;;;;;;;;;;;;;;;;;5085951;28;19920;-62
2023/04/18 12:05:05;;;;;;;;;;;;;;;;;;5108141;27;19916;-62
2023/04/18 12:07:32;;;;;;;;;;;;;;;;;;5108172;28;19956;-63
2023/04/18 12:09:59;;;;;;;;;;;;;;;;;;5107867;28;19981;-62
2023/04/18 12:12:24;;;;;;;;;;;;;;;;;;5108415;28;20041;-62
2023/04/18 12:17:50;;;;;;;;;;;;;;;;;;5107260;27;19912;-63
2023/04/18 12:22:49;;;;;;;;;;;;;;;;;;5090426;27;19986;-63
2023/04/18 12:25:21;;;;;;;;;;;;;;;;;;5090169;28;19978;-64
2023/04/18 12:29:20;;;;;;;;;;;;;;;;;;5151289;27;19911;-62
2023/04/18 12:35:20;;;;;;;;;;;;;;;;;;5021976;27;3030808;-63
2023/04/18 12:37:46;;;;;;;;;;;;;;;;;;5112185;28;19962;-62
2023/04/18 12:40:12;;;;;;;;;;;;;;;;;;5131094;28;19912;-62
2023/04/18 12:42:39;;;;;;;;;;;;;;;;;;5130846;28;19908;-62
2023/04/18 12:45:06;;;;;;;;;;;;;;;;;;5130590;28;20378;-62
2023/04/18 12:50:06;;;;;;;;;;;;;;;;;;5086324;27;19975;-63
2023/04/18 12:53:14;;;;;;;;;;;;;;;;;;5086567;27;20315;-66
2023/04/18 12:55:40;;;;;;;;;;;;;;;;;;5087277;28;19912;-67
2023/04/18 12:59:19;;;;;;;;;;;;;;;;;;5087759;28;19920;-70
2023/04/18 13:01:45;;;;;;;;;;;;;;;;;;5086050;28;19912;-69
2023/04/18 13:04:39;;;;;;;;;;;;;;;;;;5086467;27;19912;-67
2023/04/18 13:07:05;;;;;;;;;;;;;;;;;;5087561;28;19982;-68
2023/04/18 13:09:31;;;;;;;;;;;;;;;;;;5088653;28;19948;-69
2023/04/18 13:11:57;;;;;;;;;;;;;;;;;;5089091;28;19912;-68
2023/04/18 13:16:31;;;;;;;;;;;;;;;;;;5090767;27;19923;-68
2023/04/18 13:23:02;;;;;;;;;;;;;;;;;;5150634;27;20309;-69
2023/04/18 13:30:59;;;;;;;;;;;;;;;;;;5090306;27;19916;-69
2023/04/18 13:33:25;;;;;;;;;;;;;;;;;;5090186;28;20007;-68
2023/04/18 13:35:51;;;;;;;;;;;;;;;;;;5090632;28;19976;-68
2023/04/18 13:38:17;;;;;;;;;;;;;;;;;;5091096;28;19919;-69
2023/04/18 13:40:43;;;;;;;;;;;;;;;;;;5090896;28;19908;-69
2023/04/18 13:43:43;;;;;;;;;;;;;;;;;;5091517;27;19923;-70
2023/04/18 13:46:09;;;;;;;;;;;;;;;;;;5091193;28;19912;-69
2023/04/18 13:48:35;;;;;;;;;;;;;;;;;;5090826;28;19908;-68
2023/04/18 13:51:01;;;;;;;;;;;;;;;;;;5091121;28;19947;-67
2023/04/18 13:53:27;;;;;;;;;;;;;;;;;;5090961;28;19909;-68
2023/04/18 13:55:53;;;;;;;;;;;;;;;;;;5090568;28;19909;-68
2023/04/18 13:58:19;;;;;;;;;;;;;;;;;;5090883;28;20007;-70
2023/04/18 14:00:45;;;;;;;;;;;;;;;;;;5090880;28;19998;-69
2023/04/18 14:03:11;;;;;;;;;;;;;;;;;;5090486;28;20011;-68
2023/04/18 14:07:47;;;;;;;;;;;;;;;;;;5091430;27;20295;-68
2023/04/18 14:10:13;;;;;;;;;;;;;;;;;;5090956;28;19912;-68
2023/04/18 14:12:39;;;;;;;;;;;;;;;;;;5091209;28;20373;-68
2023/04/18 14:16:17;;;;;;;;;;;;;;;;;;5091041;27;19913;-69
2023/04/18 14:18:43;;;;;;;;;;;;;;;;;;5091463;28;20409;-69
2023/04/18 14:21:09;;;;;;;;;;;;;;;;;;5091454;28;19930;-68
2023/04/18 14:23:35;;;;;;;;;;;;;;;;;;5090845;28;20337;-68
2023/04/18 14:26:01;;;;;;;;;;;;;;;;;;5091133;28;19915;-68
2023/04/18 14:30:56;;;;;;;;;;;;;;;;;;5091118;28;19916;-68
2023/04/18 14:33:22;;;;;;;;;;;;;;;;;;5091517;28;19912;-68
2023/04/18 14:35:48;;;;;;;;;;;;;;;;;;5091223;28;20023;-68
2023/04/18 14:38:15;;;;;;;;;;;;;;;;;;5090614;28;19919;-68
2023/04/18 14:40:40;;;;;;;;;;;;;;;;;;5089751;28;19955;-69
2023/04/18 14:48:38;;;;;;;;;;;;;;;;;;5091885;27;19916;-69
2023/04/18 14:51:04;;;;;;;;;;;;;;;;;;5091157;28;19938;-69
2023/04/18 14:53:30;;;;;;;;;;;;;;;;;;5091161;28;19908;-68
2023/04/18 14:55:56;;;;;;;;;;;;;;;;;;5091176;28;19915;-68
2023/04/18 14:58:22;;;;;;;;;;;;;;;;;;5090666;28;19908;-69
2023/04/18 15:00:48;;;;;;;;;;;;;;;;;;5091051;28;19919;-69
2023/04/18 15:03:15;;;;;;;;;;;;;;;;;;5091052;28;19973;-68
2023/04/18 15:05:47;;;;;;;;;;;;;;;;;;5089294;28;19908;-69
2023/04/18 15:08:13;;;;;;;;;;;;;;;;;;5090940;28;19916;-69
2023/04/18 15:10:41;;;;;;;;;;;;;;;;;;5090920;28;19916;-67
2023/04/18 15:13:07;;;;;;;;;;;;;;;;;;5090438;28;19914;-67
2023/04/18 15:15:36;;;;;;;;;;;;;;;;;;5090856;28;19908;-68
2023/04/18 15:18:02;;;;;;;;;;;;;;;;;;5090717;28;19908;-69
2023/04/18 15:20:28;;;;;;;;;;;;;;;;;;5090260;28;19935;-69
2023/04/18 15:22:54;;;;;;;;;;;;;;;;;;5090584;28;19954;-70
2023/04/18 15:25:20;;;;;;;;;;;;;;;;;;5090540;28;20344;-70
2023/04/18 15:27:46;;;;;;;;;;;;;;;;;;5088807;28;19917;-69
2023/04/18 15:30:12;;;;;;;;;;;;;;;;;;5090372;28;19908;-68
2023/04/18 15:32:40;;;;;;;;;;;;;;;;;;5090448;28;19966;-69
2023/04/18 15:35:06;;;;;;;;;;;;;;;;;;5090087;28;19963;-69
2023/04/18 15:37:32;;;;;;;;;;;;;;;;;;5090394;28;19936;-69
2023/04/18 15:39:58;;;;;;;;;;;;;;;;;;5090154;28;19965;-69
2023/04/18 15:42:24;;;;;;;;;;;;;;;;;;5090608;28;19952;-69
2023/04/18 15:44:51;;;;;;;;;;;;;;;;;;5090215;28;19909;-70
2023/04/18 15:47:17;;;;;;;;;;;;;;;;;;5098931;28;19920;-68
2023/04/18 15:49:43;;;;;;;;;;;;;;;;;;5110435;28;19908;-69
2023/04/18 15:52:08;;;;;;;;;;;;;;;;;;5110403;28;19936;-71
2023/04/18 15:54:34;;;;;;;;;;;;;;;;;;5110211;28;19914;-68
2023/04/18 15:57:01;;;;;;;;;;;;;;;;;;5110382;28;19961;-68
2023/04/18 15:59:27;;;;;;;;;;;;;;;;;;5099642;28;19909;-68
2023/04/18 16:01:53;;;;;;;;;;;;;;;;;;5096437;28;19915;-70
2023/04/18 16:04:19;;;;;;;;;;;;;;;;;;5096838;28;19915;-68
2023/04/18 16:06:45;;;;;;;;;;;;;;;;;;5096489;28;20337;-68
2023/04/18 16:09:11;;;;;;;;;;;;;;;;;;5095930;28;20291;-68
2023/04/18 16:11:37;;;;;;;;;;;;;;;;;;5096697;28;20300;-69
2023/04/18 16:14:03;;;;;;;;;;;;;;;;;;5096523;28;19908;-70
2023/04/18 16:16:29;;;;;;;;;;;;;;;;;;5097079;28;19921;-69
2023/04/18 16:18:55;;;;;;;;;;;;;;;;;;5096503;28;19908;-68
2023/04/18 16:21:21;;;;;;;;;;;;;;;;;;5096521;28;19915;-68
2023/04/18 16:23:47;;;;;;;;;;;;;;;;;;5096074;28;20349;-70
2023/04/18 16:26:13;;;;;;;;;;;;;;;;;;5096318;28;20003;-68
2023/04/18 16:28:40;;;;;;;;;;;;;;;;;;5096191;28;19912;-69
2023/04/18 16:31:06;;;;;;;;;;;;;;;;;;5077705;28;19969;-69
2023/04/18 16:33:32;;;;;;;;;;;;;;;;;;5096561;28;19908;-70
2023/04/18 16:35:58;;;;;;;;;;;;;;;;;;5096117;28;19912;-67
2023/04/18 16:38:26;;;;;;;;;;;;;;;;;;5095455;28;19966;-69
2023/04/18 16:40:52;;;;;;;;;;;;;;;;;;5096041;28;19931;-68
2023/04/18 16:43:17;;;;;;;;;;;;;;;;;;5095604;28;19912;-69
2023/04/18 16:45:44;;;;;;;;;;;;;;;;;;5077778;28;19912;-69
2023/04/18 16:48:09;;;;;;;;;;;;;;;;;;5095461;28;19920;-69
2023/04/18 16:50:35;;;;;;;;;;;;;;;;;;5095357;28;20292;-69
2023/04/18 16:53:01;;;;;;;;;;;;;;;;;;5095696;28;19908;-69
2023/04/18 16:55:27;;;;;;;;;;;;;;;;;;5077556;28;20028;-69
2023/04/18 16:57:53;;;;;;;;;;;;;;;;;;5077091;28;19908;-68
2023/04/18 17:00:19;;;;;;;;;;;;;;;;;;5095573;28;19999;-69
2023/04/18 17:02:47;;;;;;;;;;;;;;;;;;5095561;28;19923;-68
2023/04/18 17:05:12;;;;;;;;;;;;;;;;;;5095165;28;20021;-68
2023/04/18 17:07:38;;;;;;;;;;;;;;;;;;5095292;28;19933;-69
2023/04/18 17:10:05;;;;;;;;;;;;;;;;;;5094599;28;19908;-68
2023/04/18 17:12:31;;;;;;;;;;;;;;;;;;5095106;28;19912;-68
2023/04/18 17:14:57;;;;;;;;;;;;;;;;;;5077126;28;19908;-68
2023/04/18 17:17:23;;;;;;;;;;;;;;;;;;5095374;28;19943;-69
2023/04/18 17:19:49;;;;;;;;;;;;;;;;;;5077021;28;19908;-69
2023/04/18 17:22:15;;;;;;;;;;;;;;;;;;5095310;28;19923;-68
2023/04/18 17:24:41;;;;;;;;;;;;;;;;;;5095395;28;19998;-68
2023/04/18 17:27:07;;;;;;;;;;;;;;;;;;5094619;28;20015;-69
2023/04/18 17:29:33;;;;;;;;;;;;;;;;;;5095030;28;19916;-68
2023/04/18 17:31:59;;;;;;;;;;;;;;;;;;5095000;28;20280;-68
2023/04/18 17:34:25;;;;;;;;;;;;;;;;;;5094549;28;19912;-69
2023/04/18 17:36:51;;;;;;;;;;;;;;;;;;5094900;28;19908;-68
2023/04/18 17:39:17;;;;;;;;;;;;;;;;;;5095200;28;19915;-69
2023/04/18 17:41:43;;;;;;;;;;;;;;;;;;5094731;28;19951;-69
2023/04/18 17:44:09;;;;;;;;;;;;;;;;;;5094806;28;19908;-69
2023/04/18 17:46:35;;;;;;;;;;;;;;;;;;5094290;28;19928;-68
2023/04/18 17:49:01;;;;;;;;;;;;;;;;;;5094876;28;19996;-69
2023/04/18 17:51:27;;;;;;;;;;;;;;;;;;5095000;28;19930;-69
2023/04/18 17:53:53;;;;;;;;;;;;;;;;;;5094202;28;19908;-69
2023/04/18 17:56:20;;;;;;;;;;;;;;;;;;5094186;28;19940;-68